2007 YUTU (2007135N08147)


On this page: IBTrACS data - Map and Plots - Positions - Intensities - Original source data

Summary

Start May 15
End May 25
Basins EP
WP
LMI 130 kt
Sources jtwc_wp
tokyo
cma
hko
In WMO? Yes
Previous storm 2007 AKASH (NI)
Previous in basin 2007 KONG-REY (WP)
Concurrent storms 2007 AKASH (NI)
2007 YUTU (WP)
2007 PIERRE (SP)
Next in basin Missing
Next storm 2007 PIERRE (SP)

top of page IBTrACS Data: File Access

top of page HURSAT Data: File Access

Image of storm

top of page Plots:

Map of storm track will not appear if FTP is down
Time series of cyclone Maximum Sustained Wind will not appear if FTP is down
Time series of cyclone Minimum Central Pressure will not appear if FTP is down

top of page Track Data:Position

jtwc_wp tokyo cma hko
Date Lat Lon Lat Lon Lat Lon Lat Lon
2007-05-15 00:00:00 7.8 146.7
2007-05-15 06:00:00 8.4 145.9 8.1 146.6 8.1 146.6
2007-05-15 12:00:00 8.8 145.0 8.2 146.2 8.2 146.2
2007-05-15 18:00:00 8.6 144.3 8.4 145.4 8.4 145.4
2007-05-16 00:00:00 8.6 143.9 8.9 144.7 8.9 144.7
2007-05-16 06:00:00 8.6 143.7 9.0 144.3 9.0 144.1 8.7 144.3
2007-05-16 12:00:00 8.3 143.6 9.0 143.2 9.0 143.2 8.6 143.5
2007-05-16 18:00:00 8.5 142.6 8.8 141.9 8.8 141.9 8.6 142.3
2007-05-17 00:00:00 8.5 141.0 8.9 140.7 8.9 140.7 8.6 140.9
2007-05-17 06:00:00 9.0 139.4 9.3 138.9 9.2 139.1 9.1 139.3
2007-05-17 12:00:00 9.7 137.8 9.8 137.9 9.6 138.0 9.7 138.1
2007-05-17 18:00:00 10.7 136.9 10.5 137.1 10.5 137.1 10.5 137.1
2007-05-18 00:00:00 11.6 136.0 11.3 136.2 11.4 136.1 11.4 136.1
2007-05-18 06:00:00 12.4 134.7 12.1 134.9 12.4 134.6 12.4 134.6
2007-05-18 12:00:00 13.2 133.7 13.0 133.8 13.2 133.6 13.2 133.6
2007-05-18 18:00:00 14.0 132.8 14.0 133.0 14.1 132.9 14.2 133.0
2007-05-19 00:00:00 15.0 132.3 15.1 132.5 15.1 132.4 15.1 132.5
2007-05-19 06:00:00 16.1 132.1 16.2 132.2 16.2 132.2 16.2 132.3
2007-05-19 12:00:00 16.9 132.3 17.1 132.3 17.1 132.3 17.1 132.3
2007-05-19 18:00:00 17.7 132.8 17.7 132.7 17.7 132.7 17.7 132.7
2007-05-20 00:00:00 18.3 133.5 18.2 133.4 18.3 133.5 18.2 133.4
2007-05-20 06:00:00 19.1 134.4 19.0 134.3 19.0 134.3 19.0 134.3
2007-05-20 12:00:00 19.9 135.4 19.8 135.3 19.8 135.3 19.8 135.3
2007-05-20 18:00:00 20.7 136.4 20.8 136.5 20.8 136.4 20.7 136.4
2007-05-21 00:00:00 21.6 137.7 21.7 137.8 21.7 137.7 21.7 137.7
jtwc_wp tokyo cma hko
2007-05-21 06:00:00 22.8 139.1 22.9 139.2 22.9 139.1 22.8 139.1
2007-05-21 12:00:00 23.9 140.7 24.0 140.7 24.0 140.7 24.0 140.7
2007-05-21 18:00:00 25.2 142.5 25.2 142.5 25.2 142.5 25.2 142.5
2007-05-22 00:00:00 26.2 144.5 26.3 144.6 26.2 144.5 26.3 144.6
2007-05-22 06:00:00 27.5 146.5 27.4 146.6 27.3 146.6 27.4 146.6
2007-05-22 12:00:00 28.7 149.1 28.8 149.5 28.8 149.5 28.8 149.5
2007-05-22 18:00:00 30.0 152.6 29.9 152.8 29.9 152.8 29.9 152.8
2007-05-23 00:00:00 31.0 156.0 30.8 156.0
2007-05-23 06:00:00 31.3 160.0
2007-05-23 12:00:00 32.7 163.9
2007-05-23 18:00:00 34.4 167.5
2007-05-24 00:00:00 35.4 170.3
2007-05-24 06:00:00 36.2 173.0
2007-05-24 12:00:00 36.3 175.7
2007-05-24 18:00:00 36.4 179.0
2007-05-25 00:00:00 36.6 183.0

top of pageTrack Data:Intensity

jtwc_wp tokyo cma hko
Date Wind Pres Wind Pres Wind Pres Wind Pres
2007-05-15 00:00:00 15. 1006.
2007-05-15 06:00:00 15. 1006. 1006. 23. 1004.
2007-05-15 12:00:00 20. 1004. 1008. 23. 1004.
2007-05-15 18:00:00 20. 1004. 1006. 23. 1004.
2007-05-16 00:00:00 20. 1004. 1008. 23. 1004.
2007-05-16 06:00:00 25. 1004. 1008. 29. 1002. 25. 1006.
2007-05-16 12:00:00 30. 1000. 1008. 29. 1002. 25. 1006.
2007-05-16 18:00:00 30. 1002. 1006. 29. 1000. 25. 1006.
2007-05-17 00:00:00 30. 1000. 1006. 29. 1000. 25. 1004.
2007-05-17 06:00:00 35. 997. 1006. 35. 995. 30. 1002.
2007-05-17 12:00:00 45. 991. 1006. 39. 995. 35. 998.
2007-05-17 18:00:00 45. 991. 35. 1002. 45. 990. 40. 995.
2007-05-18 00:00:00 55. 984. 45. 996. 45. 990. 45. 992.
2007-05-18 06:00:00 60. 980. 55. 990. 54. 985. 50. 988.
2007-05-18 12:00:00 65. 976. 60. 980. 58. 980. 55. 980.
2007-05-18 18:00:00 65. 976. 65. 975. 64. 975. 60. 975.
2007-05-19 00:00:00 75. 967. 70. 970. 68. 970. 65. 970.
2007-05-19 06:00:00 85. 958. 80. 960. 78. 965. 70. 965.
2007-05-19 12:00:00 95. 952. 85. 950. 78. 960. 75. 960.
2007-05-19 18:00:00 105. 938. 90. 945. 87. 950. 85. 950.
2007-05-20 00:00:00 105. 944. 90. 945. 87. 950. 85. 950.
2007-05-20 06:00:00 115. 937. 90. 945. 87. 950. 90. 945.
2007-05-20 12:00:00 130. 926. 95. 935. 97. 940. 95. 940.
2007-05-20 18:00:00 130. 926. 95. 935. 97. 940. 90. 945.
2007-05-21 00:00:00 120. 933. 95. 935. 87. 950. 90. 945.
jtwc_wp tokyo cma hko
2007-05-21 06:00:00 120. 933. 90. 945. 87. 950. 90. 945.
2007-05-21 12:00:00 115. 937. 90. 950. 87. 950. 85. 950.
2007-05-21 18:00:00 90. 956. 80. 960. 78. 960. 80. 960.
2007-05-22 00:00:00 65. 976. 70. 970. 68. 970. 70. 970.
2007-05-22 06:00:00 55. 984. 65. 975. 64. 975. 65. 975.
2007-05-22 12:00:00 55. 984. 50. 985. 49. 990. 50. 985.
2007-05-22 18:00:00 50. 987. 45. 990. 45. 990. 45. 990.
2007-05-23 00:00:00 992. 35. 995.
2007-05-23 06:00:00 1000.
2007-05-23 12:00:00 1000.
2007-05-23 18:00:00 994.
2007-05-24 00:00:00 996.
2007-05-24 06:00:00 994.
2007-05-24 12:00:00 994.
2007-05-24 18:00:00 998.
2007-05-25 00:00:00 1004.

top of page Links to source data

Source Source file Format
jtwc_wp bwp022007.txt ATCF
tokyo bst_all.txt:Line=56302:YUTU:702 JMA text table
cma CH2007BST.txt:Storm=2:Yutu CMA text table
hko tc-besttrack-data.txt:Line=32510:YUTU HKO Text table